Fayetteville, AR (72701)

1:35 PM CDT on September 22, 2014 (GMT -0500)
Porter Road, Fayetteville | Change Station
CLOSE
Current Station
Personal Weather Station
Location: Fayetteville, AR
Elevation: 1260 ft
Nearby Weather Stations

Elev 1260 ft 36.08 °N, 94.19 °W | Updated 31 minutes ago

Clear
Clear
70.7 °F
Feels Like 77 °F
N
0.4
Wind Variable Wind from WNW
Gusts 2.5 mph

Today
High -- | Low -- °F
--% Chance of Precip.
Yesterday
High -- | Low -- °F
Precip. -- in
7:04 AM 7:13 PM
Waning Crescent, 2% visible
Pressure 30.26 in
Visibility 10.0 miles
Clouds Clear
Heat Index 77 °F
Dew Point 54 °F
Humidity 55%
Rainfall 0.00 in
Snow Depth Not available.
UV 8 out of 12
Pollen 9.60 out of 12
Air Quality Not available.
Flu Activity Not available.
METAR KFYV 221753Z VRB04KT 10SM CLR 21/12 A3028 RMK AO2 SLP247 T02060117 10206 20083 58009

More Conditions Fewer Conditions

Pressure 30.26 in
Visibility 10.0 miles
Clouds Clear
Heat Index 77 °F
Dew Point 54 °F
Humidity 55%
Rainfall 0.00 in
Snow Depth Not available.
UV 8 out of 12
Pollen 9.60 out of 12
Air Quality Not available.
Flu Activity Not available.
METAR KFYV 221753Z VRB04KT 10SM CLR 21/12 A3028 RMK AO2 SLP247 T02060117 10206 20083 58009

More Conditions Fewer Conditions

10-Day Weather Forecast

Almanac

Astronomy

Sep. 22, 2014 Rise Set
Actual Time 7:04 AM CDT 7:13 PM CDT
Civil Twilight 6:38 AM CDT 7:38 PM CDT
Nautical Twilight 6:08 AM CDT 8:08 PM CDT
Astronomical Twilight 5:38 AM CDT 8:39 PM CDT
Moon 5:35 AM CDT 6:20 PM CDT
Length of Visible Light 13h 00m
Length of Day
12h 08m
Tomorrow will be 2m 16s shorter.
Waning Crescent, 2% of the Moon is Illuminated
Today
Waning Crescent
Sep 24
New
Oct 1
First Quarter
Oct 8
Full
Oct 15
Last Quarter

Today's Extremes

State Highs State Lows

Community

WunderPhotos

Upload Photos

1,755,507 photos uploaded!

WunderBlogs® & News

Nearby

Snow Depth

Station Depth Elevation
No new snow has been reported.

Earthquake Activity

City Distance Mag. Time & Date
No recent earthquake activity has been reported nearby.
Minimum magnitude displayed is 2.5.

Coastal Water Temperatures

Place Temperature
No Stations Reporting

Nearby Weather Stations